LEMG Airport Information

Runway Information
Runway 12 Length 9022 ft width 148 ft
Elevation 52 ft Threshold 0 ft Heading 119
Runway 30 Length 9022 ft Width 148 ft
Elevation 31 ft Threshold 0 ft Heading 299
Runway 13 Length 10500 ft width 148 ft
Elevation 52 ft Threshold 0 ft Heading 133
Runway 31 Length 10500 ft Width 148 ft
Elevation 31 ft Threshold 0 ft Heading 313
Airport Frequencies
Type A/D Name APP Frequency 123.85 MHZ
Type ATIS Name ATIS Frequency 120.375 MHZ
Type CLD Name CLR DEL Frequency 121.875 MHZ
Type GND Name GND-W Frequency 121.7 MHZ
Type GND Name GND-E Frequency 121.95 MHZ
Type TWR Name TWR-W (RWY Frequency 118.15 MHZ
Type TWR Name TWR-E (RWY Frequency 118.775 MHZ
Airport Navaids
Type VOR-DME Name Martin Frequency 112600 KHZ
Type VOR-DME Name Malaga Frequency 112000 KHZ
Type VOR-DME Name Malaga Frequency 113550 KHZ
Type NDB Name Malaga Frequency 330 KHZ
Airport Weather Information & NOTAM
ADDS - METARS form results

(1640 UTC 07 December 2019)
Data provider http://aviationweather.gov/metar/data/
 
METAR text: LEMG 071630Z 16008KT 120V200 9999 FEW040 17/11 Q1022 NOSIG
Conditions at: LEMG (MALAGA (CIV/MIL), ES) observed 1630 UTC 07 December 2019
Temperature: 17.0°C (63°F)
Dewpoint: 11.0°C (52°F) [RH = 68%]
Pressure (altimeter): 30.18 inches Hg (1022.0 mb)
Winds: from the SSE (160 degrees) at 9 MPH (8 knots; 4.1 m/s)
Visibility: 6 or more miles (10+ km)
Ceiling: at least 12,000 feet AGL
Clouds: few clouds at 4000 feet AGL
Weather: no significant weather observed at this time

METAR text: LEMG 071600Z 17009KT 140V200 9999 FEW030 17/10 Q1022 NOSIG
Conditions at: LEMG (MALAGA (CIV/MIL), ES) observed 1600 UTC 07 December 2019
Temperature: 17.0°C (63°F)
Dewpoint: 10.0°C (50°F) [RH = 63%]
Pressure (altimeter): 30.18 inches Hg (1022.0 mb)
Winds: from the S (170 degrees) at 10 MPH (9 knots; 4.6 m/s)
Visibility: 6 or more miles (10+ km)
Ceiling: at least 12,000 feet AGL
Clouds: few clouds at 3000 feet AGL
Weather: no significant weather observed at this time

Forecast for: LEMG (MALAGA (CIV/MIL), ES)
Text: TAF LEMG 071100Z 0712/0812 30008KT 9999 FEW040 TX19/0713Z TN11/0806Z
Forecast period: 1200 UTC 07 December 2019 to 1200 UTC 08 December 2019
Forecast type: FROM: standard forecast or significant change
Winds: from the WNW (300 degrees) at 9 MPH (8 knots; 4.1 m/s)
Visibility: 6 or more miles 10+ km)
Ceiling: at least 12,000 feet AGL
Clouds: few clouds at 4000 feet AGL
Weather: no significant weather forecast for this period
Text: TEMPO 0712/0717 18010KT
Forecast period: 1200 to 1700 UTC 07 December 2019
Forecast type: TEMPORARY: The following changes expected for less than half the time period
Winds: from the S (180 degrees) at 12 MPH (10 knots; 5.1 m/s)
Visibility: missing
Ceiling: unknown
Clouds: missing
Weather: no significant weather forecast for this period